sensor_id;sensor_type;location;lat;lon;timestamp;pressure;altitude;pressure_sealevel;temperature;humidity
69784;BME280;57054;51.978;4.498;2023-01-28T00:01:10;103054.59;;;3.21;88.74
69784;BME280;57054;51.978;4.498;2023-01-28T00:03:36;103060.69;;;3.23;88.95
69784;BME280;57054;51.978;4.498;2023-01-28T00:06:03;103058.06;;;3.22;88.05
69784;BME280;57054;51.978;4.498;2023-01-28T00:08:28;103056.38;;;3.22;87.98
69784;BME280;57054;51.978;4.498;2023-01-28T00:10:56;103059.78;;;3.21;87.95
69784;BME280;57054;51.978;4.498;2023-01-28T00:13:22;103060.63;;;3.20;87.35
69784;BME280;57054;51.978;4.498;2023-01-28T00:15:53;103060.56;;;3.17;86.65
69784;BME280;57054;51.978;4.498;2023-01-28T00:18:18;103058.63;;;3.10;86.00
69784;BME280;57054;51.978;4.498;2023-01-28T00:20:43;103056.88;;;3.09;86.31
69784;BME280;57054;51.978;4.498;2023-01-28T00:23:09;103061.03;;;3.02;86.55
69784;BME280;57054;51.978;4.498;2023-01-28T00:25:34;103049.78;;;3.02;86.95
69784;BME280;57054;51.978;4.498;2023-01-28T00:27:59;103045.31;;;2.96;86.75
69784;BME280;57054;51.978;4.498;2023-01-28T00:30:25;103045.31;;;2.96;87.06
69784;BME280;57054;51.978;4.498;2023-01-28T00:32:50;103044.41;;;2.94;86.90
69784;BME280;57054;51.978;4.498;2023-01-28T00:35:17;103045.28;;;2.95;87.36
69784;BME280;57054;51.978;4.498;2023-01-28T00:37:44;103042.75;;;2.96;87.74
69784;BME280;57054;51.978;4.498;2023-01-28T00:40:09;103054.06;;;3.00;88.33
69784;BME280;57054;51.978;4.498;2023-01-28T00:42:35;103050.63;;;3.01;88.82
69784;BME280;57054;51.978;4.498;2023-01-28T00:45:01;103050.72;;;3.04;88.80
69784;BME280;57054;51.978;4.498;2023-01-28T00:47:26;103054.28;;;3.07;89.12
69784;BME280;57054;51.978;4.498;2023-01-28T00:49:52;103052.59;;;3.10;89.28
69784;BME280;57054;51.978;4.498;2023-01-28T00:52:17;103051.75;;;3.11;89.11
69784;BME280;57054;51.978;4.498;2023-01-28T00:54:42;103048.28;;;3.10;88.41
69784;BME280;57054;51.978;4.498;2023-01-28T00:57:07;103050.00;;;3.10;88.00
69784;BME280;57054;51.978;4.498;2023-01-28T00:59:33;103048.31;;;3.12;88.98
69784;BME280;57054;51.978;4.498;2023-01-28T01:01:58;103048.38;;;3.13;89.08
69784;BME280;57054;51.978;4.498;2023-01-28T01:04:36;103051.75;;;3.11;88.24
69784;BME280;57054;51.978;4.498;2023-01-28T01:07:01;103055.19;;;3.10;87.83
69784;BME280;57054;51.978;4.498;2023-01-28T01:09:26;103047.38;;;3.08;87.66
69784;BME280;57054;51.978;4.498;2023-01-28T01:11:52;103053.41;;;3.08;88.04
69784;BME280;57054;51.978;4.498;2023-01-28T01:14:17;103050.72;;;3.04;87.37
69784;BME280;57054;51.978;4.498;2023-01-28T01:16:42;103052.38;;;3.02;87.12
69784;BME280;57054;51.978;4.498;2023-01-28T01:19:07;103054.13;;;3.03;87.42
69784;BME280;57054;51.978;4.498;2023-01-28T01:21:33;103054.19;;;3.04;88.08
69784;BME280;57054;51.978;4.498;2023-01-28T01:23:58;103058.50;;;3.05;88.30
69784;BME280;57054;51.978;4.498;2023-01-28T01:26:23;103055.91;;;3.05;88.15
69784;BME280;57054;51.978;4.498;2023-01-28T01:28:51;103054.22;;;3.06;88.02
69784;BME280;57054;51.978;4.498;2023-01-28T01:31:17;103055.00;;;3.03;88.45
69784;BME280;57054;51.978;4.498;2023-01-28T01:33:43;103049.00;;;3.04;88.50
69784;BME280;57054;51.978;4.498;2023-01-28T01:36:08;103044.66;;;3.03;88.13
69784;BME280;57054;51.978;4.498;2023-01-28T01:38:34;103041.06;;;2.98;87.25
69784;BME280;57054;51.978;4.498;2023-01-28T01:41:01;103051.41;;;2.97;87.16
69784;BME280;57054;51.978;4.498;2023-01-28T01:46:10;103050.53;;;2.98;88.09
69784;BME280;57054;51.978;4.498;2023-01-28T01:48:36;103043.75;;;3.01;88.60
69784;BME280;57054;51.978;4.498;2023-01-28T01:51:08;103052.31;;;2.99;87.71
69784;BME280;57054;51.978;4.498;2023-01-28T01:53:34;103055.81;;;3.01;87.86
69784;BME280;57054;51.978;4.498;2023-01-28T01:56:02;103044.59;;;3.02;88.50
69784;BME280;57054;51.978;4.498;2023-01-28T01:58:28;103050.72;;;3.04;88.63
69784;BME280;57054;51.978;4.498;2023-01-28T02:00:54;103049.00;;;3.04;88.65
69784;BME280;57054;51.978;4.498;2023-01-28T02:03:21;103046.47;;;3.06;88.82
69784;BME280;57054;51.978;4.498;2023-01-28T02:05:50;103047.31;;;3.06;88.87
69784;BME280;57054;51.978;4.498;2023-01-28T02:08:16;103043.06;;;3.08;89.42
69784;BME280;57054;51.978;4.498;2023-01-28T02:10:48;103035.34;;;3.10;89.17
69784;BME280;57054;51.978;4.498;2023-01-28T02:13:14;103049.19;;;3.12;89.59
69784;BME280;57054;51.978;4.498;2023-01-28T02:15:41;103050.09;;;3.14;89.93
69784;BME280;57054;51.978;4.498;2023-01-28T02:18:07;103052.69;;;3.14;89.82
69784;BME280;57054;51.978;4.498;2023-01-28T02:26:20;103060.63;;;3.20;90.48
69784;BME280;57054;51.978;4.498;2023-01-28T02:29:03;103070.00;;;3.15;88.68
69784;BME280;57054;51.978;4.498;2023-01-28T02:31:41;103065.69;;;3.16;89.16
69784;BME280;57054;51.978;4.498;2023-01-28T02:34:15;103064.81;;;3.15;89.50
69784;BME280;57054;51.978;4.498;2023-01-28T02:36:47;103070.88;;;3.16;89.26
69784;BME280;57054;51.978;4.498;2023-01-28T02:39:23;103079.50;;;3.15;88.94
69784;BME280;57054;51.978;4.498;2023-01-28T02:41:52;103076.84;;;3.13;88.40
69784;BME280;57054;51.978;4.498;2023-01-28T02:44:20;103064.72;;;3.12;88.80
69784;BME280;57054;51.978;4.498;2023-01-28T02:46:45;103063.00;;;3.11;88.48
69784;BME280;57054;51.978;4.498;2023-01-28T02:49:38;103062.09;;;3.11;89.03
69784;BME280;57054;51.978;4.498;2023-01-28T02:55:16;103057.72;;;3.08;88.39
69784;BME280;57054;51.978;4.498;2023-01-28T03:00:17;103069.75;;;3.06;88.28
69784;BME280;57054;51.978;4.498;2023-01-28T03:02:51;103064.63;;;3.07;88.59
69784;BME280;57054;51.978;4.498;2023-01-28T03:07:44;103055.13;;;3.08;89.17
69784;BME280;57054;51.978;4.498;2023-01-28T03:10:11;103068.94;;;3.08;89.11
69784;BME280;57054;51.978;4.498;2023-01-28T03:12:40;103067.22;;;3.09;89.06
69784;BME280;57054;51.978;4.498;2023-01-28T03:15:31;103068.19;;;3.11;89.39
69784;BME280;57054;51.978;4.498;2023-01-28T03:18:22;103066.41;;;3.10;88.93
69784;BME280;57054;51.978;4.498;2023-01-28T03:26:36;103059.31;;;3.03;87.68
69784;BME280;57054;51.978;4.498;2023-01-28T03:29:21;103067.13;;;3.04;88.40
69784;BME280;57054;51.978;4.498;2023-01-28T03:32:06;103065.38;;;3.03;88.32
69784;BME280;57054;51.978;4.498;2023-01-28T03:34:50;103064.53;;;3.04;88.52
69784;BME280;57054;51.978;4.498;2023-01-28T03:37:34;103069.66;;;3.03;88.20
69784;BME280;57054;51.978;4.498;2023-01-28T03:40:00;103061.91;;;3.03;87.69
69784;BME280;57054;51.978;4.498;2023-01-28T03:42:25;103062.78;;;3.03;88.33
69784;BME280;57054;51.978;4.498;2023-01-28T03:44:51;103067.91;;;3.02;87.96
69784;BME280;57054;51.978;4.498;2023-01-28T03:47:17;103069.66;;;3.03;88.38
69784;BME280;57054;51.978;4.498;2023-01-28T03:49:43;103065.31;;;3.00;86.60
69784;BME280;57054;51.978;4.498;2023-01-28T03:52:13;103063.53;;;2.99;87.29
69784;BME280;57054;51.978;4.498;2023-01-28T03:54:39;103068.63;;;2.96;86.28
69784;BME280;57054;51.978;4.498;2023-01-28T03:57:04;103069.53;;;2.98;87.21
69784;BME280;57054;51.978;4.498;2023-01-28T03:59:30;103073.03;;;2.99;87.74
69784;BME280;57054;51.978;4.498;2023-01-28T04:01:55;103083.34;;;2.97;86.82
69784;BME280;57054;51.978;4.498;2023-01-28T04:04:21;103093.72;;;2.99;87.53
69784;BME280;57054;51.978;4.498;2023-01-28T04:06:50;103100.66;;;3.00;87.95
69784;BME280;57054;51.978;4.498;2023-01-28T04:09:15;103102.31;;;2.98;87.71
69784;BME280;57054;51.978;4.498;2023-01-28T04:11:41;103104.09;;;2.99;86.96
69784;BME280;57054;51.978;4.498;2023-01-28T04:14:06;103101.50;;;2.99;87.60
69784;BME280;57054;51.978;4.498;2023-01-28T04:16:31;103092.00;;;2.99;87.86
69784;BME280;57054;51.978;4.498;2023-01-28T04:18:56;103100.66;;;3.00;87.97
69784;BME280;57054;51.978;4.498;2023-01-28T04:21:23;103095.47;;;3.00;88.15
69784;BME280;57054;51.978;4.498;2023-01-28T04:23:48;103097.19;;;2.99;87.99
69784;BME280;57054;51.978;4.498;2023-01-28T04:26:13;103093.72;;;2.99;87.66
69784;BME280;57054;51.978;4.498;2023-01-28T04:28:39;103094.56;;;2.98;87.74
69784;BME280;57054;51.978;4.498;2023-01-28T04:31:04;103098.88;;;2.97;87.00
69784;BME280;57054;51.978;4.498;2023-01-28T04:33:29;103106.50;;;2.93;85.73
69784;BME280;57054;51.978;4.498;2023-01-28T04:35:55;103103.03;;;2.92;85.96
69784;BME280;57054;51.978;4.498;2023-01-28T04:38:20;103105.63;;;2.92;86.57
69784;BME280;57054;51.978;4.498;2023-01-28T04:40:52;103100.41;;;2.91;86.52
69784;BME280;57054;51.978;4.498;2023-01-28T04:43:18;103089.19;;;2.90;86.71
69784;BME280;57054;51.978;4.498;2023-01-28T04:45:44;103084.91;;;2.92;87.47
69784;BME280;57054;51.978;4.498;2023-01-28T04:48:09;103091.75;;;2.90;86.26
69784;BME280;57054;51.978;4.498;2023-01-28T04:50:34;103080.50;;;2.88;85.55
69784;BME280;57054;51.978;4.498;2023-01-28T04:53:00;103080.50;;;2.88;86.13
69784;BME280;57054;51.978;4.498;2023-01-28T04:55:25;103077.97;;;2.90;87.31
69784;BME280;57054;51.978;4.498;2023-01-28T04:57:50;103081.50;;;2.93;87.94
69784;BME280;57054;51.978;4.498;2023-01-28T05:00:15;103080.69;;;2.96;88.40
69784;BME280;57054;51.978;4.498;2023-01-28T05:02:41;103075.56;;;2.97;88.80
69784;BME280;57054;51.978;4.498;2023-01-28T05:05:06;103080.69;;;2.96;87.94
69784;BME280;57054;51.978;4.498;2023-01-28T05:07:33;103082.47;;;2.98;88.18
69784;BME280;57054;51.978;4.498;2023-01-28T05:09:58;103079.84;;;2.95;87.09
69784;BME280;57054;51.978;4.498;2023-01-28T05:12:23;103090.97;;;2.93;86.52
69784;BME280;57054;51.978;4.498;2023-01-28T05:14:49;103101.34;;;2.94;86.66
69784;BME280;57054;51.978;4.498;2023-01-28T05:17:14;103098.78;;;2.94;87.22
69784;BME280;57054;51.978;4.498;2023-01-28T05:19:39;103097.09;;;2.96;87.92
69784;BME280;57054;51.978;4.498;2023-01-28T05:22:04;103098.88;;;2.97;88.47
69784;BME280;57054;51.978;4.498;2023-01-28T05:24:30;103096.22;;;2.96;88.30
69784;BME280;57054;51.978;4.498;2023-01-28T05:26:55;103092.81;;;2.97;87.91
69784;BME280;57054;51.978;4.498;2023-01-28T05:29:20;103085.91;;;2.97;88.55
69784;BME280;57054;51.978;4.498;2023-01-28T05:31:46;103089.34;;;2.96;87.65
69784;BME280;57054;51.978;4.498;2023-01-28T05:34:11;103090.94;;;2.91;85.25
69784;BME280;57054;51.978;4.498;2023-01-28T05:36:37;103084.91;;;2.92;86.62
69784;BME280;57054;51.978;4.498;2023-01-28T05:39:02;103086.69;;;2.93;87.57
69784;BME280;57054;51.978;4.498;2023-01-28T05:41:27;103085.00;;;2.95;88.21
69784;BME280;57054;51.978;4.498;2023-01-28T05:43:53;103085.06;;;2.97;88.66
69784;BME280;57054;51.978;4.498;2023-01-28T05:46:18;103080.75;;;2.97;88.77
69784;BME280;57054;51.978;4.498;2023-01-28T05:48:43;103072.13;;;2.98;88.52
69784;BME280;57054;51.978;4.498;2023-01-28T05:51:09;103086.78;;;2.98;87.74
69784;BME280;57054;51.978;4.498;2023-01-28T05:53:35;103081.56;;;2.96;87.25
69784;BME280;57054;51.978;4.498;2023-01-28T05:56:00;103083.34;;;2.97;88.13
69784;BME280;57054;51.978;4.498;2023-01-28T05:58:25;103085.06;;;2.98;88.66
69784;BME280;57054;51.978;4.498;2023-01-28T06:00:54;103080.69;;;2.96;86.75
69784;BME280;57054;51.978;4.498;2023-01-28T06:03:20;103090.13;;;2.94;85.80
69784;BME280;57054;51.978;4.498;2023-01-28T06:05:46;103080.59;;;2.93;86.33
69784;BME280;57054;51.978;4.498;2023-01-28T06:08:11;103089.28;;;2.93;87.33
69784;BME280;57054;51.978;4.498;2023-01-28T06:10:37;103080.59;;;2.93;87.03
69784;BME280;57054;51.978;4.498;2023-01-28T06:13:02;103087.56;;;2.94;87.32
69784;BME280;57054;51.978;4.498;2023-01-28T06:15:27;103089.28;;;2.93;87.12
69784;BME280;57054;51.978;4.498;2023-01-28T06:17:52;103087.47;;;2.91;85.99
69784;BME280;57054;51.978;4.498;2023-01-28T06:20:18;103078.81;;;2.90;86.37
69784;BME280;57054;51.978;4.498;2023-01-28T06:22:43;103086.63;;;2.92;87.34
69784;BME280;57054;51.978;4.498;2023-01-28T06:25:09;103097.81;;;2.91;86.80
69784;BME280;57054;51.978;4.498;2023-01-28T06:27:35;103104.72;;;2.90;86.87
69784;BME280;57054;51.978;4.498;2023-01-28T06:30:00;103108.16;;;2.91;87.36
69784;BME280;57054;51.978;4.498;2023-01-28T06:32:26;103103.91;;;2.93;87.92
69784;BME280;57054;51.978;4.498;2023-01-28T06:34:51;103103.06;;;2.94;88.35
69784;BME280;57054;51.978;4.498;2023-01-28T06:37:16;103105.72;;;2.95;88.71
69784;BME280;57054;51.978;4.498;2023-01-28T06:39:41;103102.31;;;2.98;89.08
69784;BME280;57054;51.978;4.498;2023-01-28T06:42:07;103108.31;;;2.95;88.38
69784;BME280;57054;51.978;4.498;2023-01-28T06:44:32;103099.63;;;2.95;87.50
69784;BME280;57054;51.978;4.498;2023-01-28T06:46:57;103111.72;;;2.94;86.40
69784;BME280;57054;51.978;4.498;2023-01-28T06:49:23;103109.97;;;2.93;87.07
69784;BME280;57054;51.978;4.498;2023-01-28T06:51:48;103104.81;;;2.95;87.83
69784;BME280;57054;51.978;4.498;2023-01-28T06:54:14;103103.13;;;2.95;88.38
69784;BME280;57054;51.978;4.498;2023-01-28T06:56:39;103103.16;;;2.97;88.67
69784;BME280;57054;51.978;4.498;2023-01-28T06:59:04;103105.66;;;2.94;86.81
69784;BME280;57054;51.978;4.498;2023-01-28T07:01:29;103102.22;;;2.95;87.75
69784;BME280;57054;51.978;4.498;2023-01-28T07:03:55;103096.22;;;2.96;88.09
69784;BME280;57054;51.978;4.498;2023-01-28T07:06:20;103096.19;;;2.94;88.67
69784;BME280;57054;51.978;4.498;2023-01-28T07:08:46;103100.59;;;2.97;89.12
69784;BME280;57054;51.978;4.498;2023-01-28T07:11:11;103110.13;;;2.99;89.33
69784;BME280;57054;51.978;4.498;2023-01-28T07:13:36;103094.56;;;2.98;89.47
69784;BME280;57054;51.978;4.498;2023-01-28T07:16:02;103103.19;;;2.98;89.27
69784;BME280;57054;51.978;4.498;2023-01-28T07:18:28;103108.38;;;2.98;89.25
69784;BME280;57054;51.978;4.498;2023-01-28T07:20:53;103109.25;;;2.99;89.62
69784;BME280;57054;51.978;4.498;2023-01-28T07:23:18;103100.66;;;3.00;90.01
69784;BME280;57054;51.978;4.498;2023-01-28T07:25:44;103101.53;;;3.00;90.01
69784;BME280;57054;51.978;4.498;2023-01-28T07:28:09;103110.19;;;3.01;90.41
69784;BME280;57054;51.978;4.498;2023-01-28T07:30:35;103112.78;;;3.01;90.53
69784;BME280;57054;51.978;4.498;2023-01-28T07:33:01;103120.53;;;3.01;90.64
69784;BME280;57054;51.978;4.498;2023-01-28T07:35:26;103109.31;;;3.02;90.79
69784;BME280;57054;51.978;4.498;2023-01-28T07:37:55;103105.88;;;3.01;90.95
69784;BME280;57054;51.978;4.498;2023-01-28T07:40:21;103104.16;;;3.02;91.07
69784;BME280;57054;51.978;4.498;2023-01-28T07:42:46;103109.31;;;3.02;91.20
69784;BME280;57054;51.978;4.498;2023-01-28T07:45:11;103111.03;;;3.01;91.23
69784;BME280;57054;51.978;4.498;2023-01-28T07:47:37;103112.78;;;3.01;91.35
69784;BME280;57054;51.978;4.498;2023-01-28T07:50:02;103118.81;;;3.01;91.35
69784;BME280;57054;51.978;4.498;2023-01-28T07:52:27;103117.94;;;3.01;91.30
69784;BME280;57054;51.978;4.498;2023-01-28T07:54:53;103127.44;;;3.00;91.15
69784;BME280;57054;51.978;4.498;2023-01-28T07:57:18;103125.66;;;2.99;91.35
69784;BME280;57054;51.978;4.498;2023-01-28T07:59:50;103123.06;;;2.99;91.53
69784;BME280;57054;51.978;4.498;2023-01-28T08:02:15;103122.22;;;2.99;91.53
69784;BME280;57054;51.978;4.498;2023-01-28T08:04:41;103125.63;;;2.98;91.40
69784;BME280;57054;51.978;4.498;2023-01-28T08:07:06;103122.97;;;2.96;91.48
69784;BME280;57054;51.978;4.498;2023-01-28T08:09:31;103135.94;;;2.96;91.55
69784;BME280;57054;51.978;4.498;2023-01-28T08:11:58;103140.19;;;2.94;91.36
69784;BME280;57054;51.978;4.498;2023-01-28T08:14:23;103135.88;;;2.93;91.59
69784;BME280;57054;51.978;4.498;2023-01-28T08:16:48;103147.91;;;2.93;91.51
69784;BME280;57054;51.978;4.498;2023-01-28T08:19:14;103153.09;;;2.93;91.53
69784;BME280;57054;51.978;4.498;2023-01-28T08:21:42;103147.91;;;2.93;91.49
69784;BME280;57054;51.978;4.498;2023-01-28T08:24:07;103141.84;;;2.92;91.73
69784;BME280;57054;51.978;4.498;2023-01-28T08:26:32;103134.97;;;2.93;91.88
69784;BME280;57054;51.978;4.498;2023-01-28T08:28:57;103144.44;;;2.92;92.03
69784;BME280;57054;51.978;4.498;2023-01-28T08:31:22;103161.75;;;2.93;92.09
69784;BME280;57054;51.978;4.498;2023-01-28T08:33:48;103163.47;;;2.94;92.15
69784;BME280;57054;51.978;4.498;2023-01-28T08:36:13;103166.13;;;2.96;92.24
69784;BME280;57054;51.978;4.498;2023-01-28T08:38:39;103181.66;;;2.96;92.32
69784;BME280;57054;51.978;4.498;2023-01-28T08:41:04;103188.56;;;2.95;92.40
69784;BME280;57054;51.978;4.498;2023-01-28T08:43:30;103185.97;;;2.95;92.24
69784;BME280;57054;51.978;4.498;2023-01-28T08:45:55;103178.19;;;2.95;91.97
69784;BME280;57054;51.978;4.498;2023-01-28T08:48:20;103186.81;;;2.96;91.72
69784;BME280;57054;51.978;4.498;2023-01-28T08:50:46;103182.47;;;2.95;91.85
69784;BME280;57054;51.978;4.498;2023-01-28T08:53:12;103186.81;;;2.96;92.27
69784;BME280;57054;51.978;4.498;2023-01-28T08:55:37;103184.28;;;2.97;92.34
69784;BME280;57054;51.978;4.498;2023-01-28T08:58:06;103185.16;;;2.98;92.74
69784;BME280;57054;51.978;4.498;2023-01-28T09:00:32;103192.97;;;2.99;92.70
69784;BME280;57054;51.978;4.498;2023-01-28T09:02:58;103186.97;;;3.00;92.91
69784;BME280;57054;51.978;4.498;2023-01-28T09:05:23;103186.13;;;3.01;92.94
69784;BME280;57054;51.978;4.498;2023-01-28T09:07:48;103189.56;;;3.02;93.11
69784;BME280;57054;51.978;4.498;2023-01-28T09:10:14;103193.94;;;3.03;93.22
69784;BME280;57054;51.978;4.498;2023-01-28T09:12:40;103192.16;;;3.02;93.21
69784;BME280;57054;51.978;4.498;2023-01-28T09:15:06;103197.41;;;3.03;93.23
69784;BME280;57054;51.978;4.498;2023-01-28T09:17:31;103199.97;;;3.03;93.44
69784;BME280;57054;51.978;4.498;2023-01-28T09:19:56;103206.94;;;3.04;93.56
69784;BME280;57054;51.978;4.498;2023-01-28T09:22:21;103212.97;;;3.05;93.49
69784;BME280;57054;51.978;4.498;2023-01-28T09:24:47;103214.75;;;3.06;93.68
69784;BME280;57054;51.978;4.498;2023-01-28T09:27:12;103219.06;;;3.07;93.76
69784;BME280;57054;51.978;4.498;2023-01-28T09:29:37;103214.69;;;3.04;92.83
69784;BME280;57054;51.978;4.498;2023-01-28T09:32:03;103218.09;;;3.03;92.52
69784;BME280;57054;51.978;4.498;2023-01-28T09:34:28;103236.31;;;3.06;92.79
69784;BME280;57054;51.978;4.498;2023-01-28T09:36:54;103225.97;;;3.06;93.02
69784;BME280;57054;51.978;4.498;2023-01-28T09:39:19;103225.16;;;3.07;93.17
69784;BME280;57054;51.978;4.498;2023-01-28T09:41:52;103225.16;;;3.07;93.24
69784;BME280;57054;51.978;4.498;2023-01-28T09:44:27;103237.25;;;3.08;93.20
69784;BME280;57054;51.978;4.498;2023-01-28T09:47:00;103235.53;;;3.09;93.34
69784;BME280;57054;51.978;4.498;2023-01-28T09:52:00;103220.88;;;3.10;93.29
69784;BME280;57054;51.978;4.498;2023-01-28T09:54:28;103220.88;;;3.10;93.47
69784;BME280;57054;51.978;4.498;2023-01-28T09:57:08;103221.75;;;3.10;93.28
69784;BME280;57054;51.978;4.498;2023-01-28T09:59:36;103231.16;;;3.06;90.85
69784;BME280;57054;51.978;4.498;2023-01-28T10:02:03;103229.38;;;3.05;90.87
69784;BME280;57054;51.978;4.498;2023-01-28T10:10:02;103239.78;;;3.07;91.88
69784;BME280;57054;51.978;4.498;2023-01-28T10:17:46;103247.69;;;3.12;92.92
69784;BME280;57054;51.978;4.498;2023-01-28T10:22:43;103233.88;;;3.11;91.85
69784;BME280;57054;51.978;4.498;2023-01-28T10:25:18;103231.31;;;3.13;92.35
69784;BME280;57054;51.978;4.498;2023-01-28T10:27:44;103237.41;;;3.13;92.71
69784;BME280;57054;51.978;4.498;2023-01-28T10:30:15;103232.25;;;3.15;92.64
69784;BME280;57054;51.978;4.498;2023-01-28T10:32:43;103226.22;;;3.16;92.89
69784;BME280;57054;51.978;4.498;2023-01-28T10:35:09;103227.03;;;3.13;91.40
69784;BME280;57054;51.978;4.498;2023-01-28T10:37:36;103225.22;;;3.11;88.88
69784;BME280;57054;51.978;4.498;2023-01-28T10:40:01;103224.34;;;3.10;89.13
69784;BME280;57054;51.978;4.498;2023-01-28T10:42:32;103219.22;;;3.12;90.34
69784;BME280;57054;51.978;4.498;2023-01-28T10:45:00;103226.13;;;3.13;90.89
69784;BME280;57054;51.978;4.498;2023-01-28T10:47:31;103224.50;;;3.15;91.37
69784;BME280;57054;51.978;4.498;2023-01-28T10:49:59;103225.38;;;3.15;90.93
69784;BME280;57054;51.978;4.498;2023-01-28T10:52:25;103220.09;;;3.12;89.25
69784;BME280;57054;51.978;4.498;2023-01-28T10:55:00;103216.63;;;3.12;88.90
69784;BME280;57054;51.978;4.498;2023-01-28T10:57:25;103215.78;;;3.13;90.02
69784;BME280;57054;51.978;4.498;2023-01-28T10:59:51;103211.50;;;3.13;90.33
69784;BME280;57054;51.978;4.498;2023-01-28T11:04:44;103176.16;;;3.15;91.19
69784;BME280;57054;51.978;4.498;2023-01-28T11:07:17;103183.16;;;3.19;91.37
69784;BME280;57054;51.978;4.498;2023-01-28T11:09:47;103176.31;;;3.21;91.65
69784;BME280;57054;51.978;4.498;2023-01-28T11:12:19;103160.81;;;3.23;91.95
69784;BME280;57054;51.978;4.498;2023-01-28T11:17:52;103140.19;;;3.26;92.50
69784;BME280;57054;51.978;4.498;2023-01-28T11:20:20;103151.34;;;3.23;90.83
69784;BME280;57054;51.978;4.498;2023-01-28T11:22:46;103141.75;;;3.19;86.51
69784;BME280;57054;51.978;4.498;2023-01-28T11:25:26;103133.97;;;3.19;87.85
69784;BME280;57054;51.978;4.498;2023-01-28T11:27:52;103138.34;;;3.22;89.14
69784;BME280;57054;51.978;4.498;2023-01-28T11:30:22;103125.41;;;3.22;89.58
69784;BME280;57054;51.978;4.498;2023-01-28T11:33:23;103116.75;;;3.21;88.71
69784;BME280;57054;51.978;4.498;2023-01-28T11:35:40;103110.66;;;3.19;87.07
69784;BME280;57054;51.978;4.498;2023-01-28T11:38:18;103099.44;;;3.19;87.26
69784;BME280;57054;51.978;4.498;2023-01-28T11:40:51;103097.75;;;3.21;88.64
69784;BME280;57054;51.978;4.498;2023-01-28T11:43:17;103101.25;;;3.23;89.47
69784;BME280;57054;51.978;4.498;2023-01-28T11:45:46;103112.53;;;3.25;89.92
69784;BME280;57054;51.978;4.498;2023-01-28T11:50:42;103110.94;;;3.30;90.62
69784;BME280;57054;51.978;4.498;2023-01-28T11:56:15;103126.53;;;3.32;91.13
69784;BME280;57054;51.978;4.498;2023-01-28T12:11:34;103129.41;;;3.42;92.21
69784;BME280;57054;51.978;4.498;2023-01-28T12:19:57;103145.53;;;3.32;84.14
69784;BME280;57054;51.978;4.498;2023-01-28T12:22:31;103162.84;;;3.33;85.45
69784;BME280;57054;51.978;4.498;2023-01-28T12:35:33;103167.16;;;3.34;82.95
69784;BME280;57054;51.978;4.498;2023-01-28T12:38:06;103149.03;;;3.34;83.50
69784;BME280;57054;51.978;4.498;2023-01-28T12:40:38;103143.00;;;3.34;81.14
69784;BME280;57054;51.978;4.498;2023-01-28T12:43:13;103136.03;;;3.33;81.29
69784;BME280;57054;51.978;4.498;2023-01-28T12:48:29;103123.06;;;3.31;81.14
69784;BME280;57054;51.978;4.498;2023-01-28T12:50:53;103104.09;;;3.32;81.74
69784;BME280;57054;51.978;4.498;2023-01-28T12:53:21;103100.72;;;3.35;82.84
69784;BME280;57054;51.978;4.498;2023-01-28T12:55:48;103088.69;;;3.38;83.93
69784;BME280;57054;51.978;4.498;2023-01-28T12:58:21;103068.91;;;3.42;85.14
69784;BME280;57054;51.978;4.498;2023-01-28T13:00:50;103057.88;;;3.48;86.43
69784;BME280;57054;51.978;4.498;2023-01-28T13:06:01;103054.63;;;3.58;88.18
69784;BME280;57054;51.978;4.498;2023-01-28T13:08:29;103044.22;;;3.55;84.85
69784;BME280;57054;51.978;4.498;2023-01-28T13:10:57;103038.22;;;3.57;85.22
69784;BME280;57054;51.978;4.498;2023-01-28T13:15:55;103052.22;;;3.64;87.83
69784;BME280;57054;51.978;4.498;2023-01-28T13:18:36;103049.63;;;3.64;86.55
69784;BME280;57054;51.978;4.498;2023-01-28T13:21:41;103050.56;;;3.68;87.66
69784;BME280;57054;51.978;4.498;2023-01-28T13:26:29;103058.50;;;3.75;89.13
69784;BME280;57054;51.978;4.498;2023-01-28T13:29:05;103066.38;;;3.78;89.89
69784;BME280;57054;51.978;4.498;2023-01-28T13:31:35;103056.88;;;3.79;88.99
69784;BME280;57054;51.978;4.498;2023-01-28T13:34:03;103056.81;;;3.77;86.21
69784;BME280;57054;51.978;4.498;2023-01-28T13:36:44;103061.19;;;3.80;87.41
69784;BME280;57054;51.978;4.498;2023-01-28T13:46:44;103064.69;;;3.82;84.40
69784;BME280;57054;51.978;4.498;2023-01-28T13:49:11;103076.81;;;3.83;83.91
69784;BME280;57054;51.978;4.498;2023-01-28T13:51:39;103080.31;;;3.85;85.33
69784;BME280;57054;51.978;4.498;2023-01-28T13:54:16;103070.81;;;3.84;84.16
69784;BME280;57054;51.978;4.498;2023-01-28T13:59:28;103063.13;;;3.89;85.46
69784;BME280;57054;51.978;4.498;2023-01-28T14:09:29;103062.53;;;4.00;89.48
69784;BME280;57054;51.978;4.498;2023-01-28T14:17:24;103086.75;;;4.01;85.33
69784;BME280;57054;51.978;4.498;2023-01-28T14:19:55;103084.22;;;4.04;87.57
69784;BME280;57054;51.978;4.498;2023-01-28T14:22:21;103082.41;;;4.01;83.31
69784;BME280;57054;51.978;4.498;2023-01-28T14:24:47;103081.59;;;4.02;83.42
69784;BME280;57054;51.978;4.498;2023-01-28T14:27:20;103072.97;;;4.03;84.33
69784;BME280;57054;51.978;4.498;2023-01-28T14:30:07;103066.91;;;4.03;83.24
69784;BME280;57054;51.978;4.498;2023-01-28T14:32:35;103070.41;;;4.05;85.24
69784;BME280;57054;51.978;4.498;2023-01-28T14:35:04;103076.50;;;4.07;84.73
69784;BME280;57054;51.978;4.498;2023-01-28T14:37:31;103063.56;;;4.09;83.84
69784;BME280;57054;51.978;4.498;2023-01-28T14:39:57;103061.88;;;4.11;86.40
69784;BME280;57054;51.978;4.498;2023-01-28T14:42:25;103056.78;;;4.14;87.25
69784;BME280;57054;51.978;4.498;2023-01-28T14:47:58;103056.88;;;4.18;88.01
69784;BME280;57054;51.978;4.498;2023-01-28T14:58:29;103065.56;;;4.22;87.63
69784;BME280;57054;51.978;4.498;2023-01-28T15:00:57;103079.47;;;4.24;87.54
69784;BME280;57054;51.978;4.498;2023-01-28T15:03:23;103081.16;;;4.23;86.59
69784;BME280;57054;51.978;4.498;2023-01-28T15:05:49;103085.56;;;4.26;88.00